Time;durP1;ratioP1;P1;durP2;ratioP2;P2;SDS_P1;SDS_P2;PMS_P1;PMS_P2;Temp;Humidity;BMP_temperature;BMP_pressure;BME280_temperature;BME280_humidity;BME280_pressure;Samples;Min_cycle;Max_cycle;Signal;HPM_P1;HPM_P2
2022/08/13 00:02:24;;;;;;;5.95;4.63;;;;;;;21.14;47.95;101307.97;7402206;19;20022;-68
2022/08/13 00:04:59;;;;;;;8.05;5.32;;;;;;;21.06;48.02;101307.53;7399653;19;20031;-68
2022/08/13 00:07:29;;;;;;;8.93;5.18;;;;;;;21.00;48.33;101299.88;7401715;19;20019;-68
2022/08/13 00:09:59;;;;;;;6.20;5.07;;;;;;;20.95;48.30;101294.84;7401054;19;20015;-68
2022/08/13 00:15:14;;;;;;;6.43;4.85;;;;;;;20.86;48.79;101294.50;7398898;19;20052;-69
2022/08/13 00:17:49;;;;;;;10.77;5.18;;;;;;;20.83;48.71;101287.53;7400754;19;20502;-68
2022/08/13 00:20:19;;;;;;;5.03;4.63;;;;;;;20.81;48.76;101289.41;7401609;19;20022;-68
2022/08/13 00:22:47;;;;;;;8.05;4.75;;;;;;;20.79;48.75;101283.31;7400615;19;20027;-68
2022/08/13 00:25:18;;;;;;;7.78;5.38;;;;;;;20.76;49.11;101283.47;7398123;19;20030;-68
2022/08/13 00:27:47;;;;;;;5.25;4.85;;;;;;;20.73;48.67;101286.31;7401222;19;20011;-68
2022/08/13 00:30:17;;;;;;;6.20;4.93;;;;;;;20.70;48.83;101281.13;7399826;19;20027;-68
2022/08/13 00:32:48;;;;;;;6.85;4.57;;;;;;;20.63;49.21;101278.78;7400584;19;20022;-68
2022/08/13 00:35:18;;;;;;;5.25;4.75;;;;;;;20.61;49.11;101282.50;7398116;19;20100;-68
2022/08/13 00:37:48;;;;;;;5.45;4.85;;;;;;;20.55;49.54;101277.50;7400571;19;20019;-68
2022/08/13 00:40:18;;;;;;;8.27;5.75;;;;;;;20.52;49.53;101278.53;7400436;19;20041;-68
2022/08/13 00:42:46;;;;;;;11.88;7.07;;;;;;;20.47;49.82;101285.91;7400341;19;20019;-68
2022/08/13 00:45:15;;;;;;;8.38;6.47;;;;;;;20.41;49.73;101275.59;7397125;19;20355;-68
2022/08/13 00:50:27;;;;;;;7.10;6.07;;;;;;;20.29;50.36;101283.31;7399357;19;20039;-68
2022/08/13 00:52:56;;;;;;;7.05;5.30;;;;;;;20.23;50.13;101280.13;7400486;19;20022;-68
2022/08/13 00:55:25;;;;;;;7.30;4.68;;;;;;;20.15;50.62;101281.38;7397067;19;20014;-68
2022/08/13 00:57:53;;;;;;;5.28;4.78;;;;;;;20.06;50.90;101275.72;7399757;19;20418;-68
2022/08/13 01:00:26;;;;;;;5.57;4.50;;;;;;;19.99;50.63;101270.72;7399694;19;20022;-68
2022/08/13 01:02:58;;;;;;;6.80;4.47;;;;;;;19.96;51.04;101275.34;7399438;19;20014;-69
2022/08/13 01:05:29;;;;;;;5.80;5.07;;;;;;;19.91;50.90;101272.91;7397243;19;20132;-69
2022/08/13 01:08:05;;;;;;;4.88;4.25;;;;;;;19.86;51.09;101264.31;7399144;19;20007;-69
2022/08/13 01:10:34;;;;;;;6.13;4.57;;;;;;;19.83;51.42;101257.34;7398612;19;20021;-68
2022/08/13 01:13:09;;;;;;;5.38;4.88;;;;;;;19.83;51.26;101264.47;7399674;19;20027;-68
2022/08/13 01:15:40;;;;;;;5.93;4.65;;;;;;;19.83;51.39;101259.16;7396598;19;20018;-69
2022/08/13 01:18:13;;;;;;;5.82;5.15;;;;;;;19.80;51.59;101249.50;7399724;19;20022;-68
2022/08/13 01:20:49;;;;;;;6.43;5.38;;;;;;;19.79;52.00;101254.88;7399238;19;20389;-69
2022/08/13 01:23:20;;;;;;;6.22;5.63;;;;;;;19.72;51.82;101251.69;7399152;19;20022;-68
2022/08/13 01:25:49;;;;;;;6.93;5.93;;;;;;;19.69;52.12;101257.19;7399837;19;20014;-69
2022/08/13 01:28:19;;;;;;;7.15;5.75;;;;;;;19.65;52.14;101251.16;7396672;19;20022;-68
2022/08/13 01:30:49;;;;;;;9.57;5.25;;;;;;;19.60;52.50;101253.19;7398238;19;20027;-69
2022/08/13 01:33:18;;;;;;;5.85;5.00;;;;;;;19.57;52.36;101258.66;7396835;19;20018;-69
2022/08/13 01:35:48;;;;;;;5.47;4.93;;;;;;;19.52;52.16;101261.56;7398211;19;20014;-69
2022/08/13 01:38:19;;;;;;;7.72;4.82;;;;;;;19.48;52.55;101265.31;7398454;19;20031;-69
2022/08/13 01:40:48;;;;;;;6.18;4.57;;;;;;;19.45;52.78;101267.25;7396832;19;20032;-68
2022/08/13 01:43:17;;;;;;;5.65;5.13;;;;;;;19.38;52.53;101261.41;7395994;19;20019;-68
2022/08/13 01:45:47;;;;;;;7.20;5.35;;;;;;;19.33;53.09;101266.09;7395611;19;20018;-68
2022/08/13 01:50:57;;;;;;;6.00;5.43;;;;;;;19.20;53.02;101260.53;7397718;19;20021;-69
2022/08/13 01:53:29;;;;;;;5.32;4.82;;;;;;;19.15;53.49;101262.56;7397114;19;20018;-68
2022/08/13 01:56:00;;;;;;;5.30;4.45;;;;;;;19.11;53.46;101260.97;7397629;19;20390;-68
2022/08/13 01:58:30;;;;;;;10.05;5.05;;;;;;;19.08;53.72;101256.66;7397575;19;20111;-68
2022/08/13 02:01:05;;;;;;;7.00;4.20;;;;;;;19.07;53.77;101262.06;7397581;19;20086;-69
2022/08/13 02:03:34;;;;;;;7.22;4.75;;;;;;;19.03;53.78;101261.34;7396818;19;20018;-68
2022/08/13 02:06:02;;;;;;;4.68;4.28;;;;;;;19.00;53.93;101267.69;7397202;19;20510;-68
2022/08/13 02:08:39;;;;;;;5.65;4.38;;;;;;;18.99;54.19;101255.34;7395908;19;20433;-68
2022/08/13 02:11:08;;;;;;;4.95;4.45;;;;;;;18.97;54.42;101248.34;7396804;19;20036;-69
2022/08/13 02:13:39;;;;;;;4.53;4.15;;;;;;;18.96;54.43;101255.47;7395672;19;20019;-68
2022/08/13 02:16:08;;;;;;;7.13;4.35;;;;;;;18.92;54.31;101250.38;7397771;19;20024;-68
2022/08/13 02:18:38;;;;;;;5.90;3.90;;;;;;;18.91;54.81;101260.16;7397161;19;20027;-68
2022/08/13 02:21:07;;;;;;;6.78;4.50;;;;;;;18.89;54.60;101257.56;7396768;19;20018;-69
2022/08/13 02:23:38;;;;;;;6.57;4.45;;;;;;;18.85;55.30;101261.28;7396081;19;20027;-68
2022/08/13 02:26:08;;;;;;;7.80;4.80;;;;;;;18.82;55.14;101257.94;7397052;19;20414;-68
2022/08/13 02:28:39;;;;;;;5.00;4.10;;;;;;;18.78;55.35;101262.53;7396757;19;20029;-68
2022/08/13 02:31:08;;;;;;;6.28;4.45;;;;;;;18.75;55.18;101262.66;7396555;19;20097;-69
2022/08/13 02:33:37;;;;;;;5.22;4.35;;;;;;;18.71;55.27;101267.25;7396129;19;20018;-68
2022/08/13 02:36:10;;;;;;;6.53;4.75;;;;;;;18.67;55.66;101265.69;7396304;19;20485;-69
2022/08/13 02:38:42;;;;;;;5.35;4.85;;;;;;;18.65;55.97;101270.22;7395036;19;20387;-68
2022/08/13 02:43:52;;;;;;;6.13;4.57;;;;;;;18.62;55.97;101258.88;7395854;19;20159;-69
2022/08/13 02:46:24;;;;;;;5.05;4.50;;;;;;;18.61;56.12;101254.50;7394466;19;20019;-68
2022/08/13 02:48:53;;;;;;;5.20;4.70;;;;;;;18.62;56.27;101258.88;7395976;19;20014;-68
2022/08/13 02:51:23;;;;;;;4.63;4.20;;;;;;;18.62;56.27;101259.72;7394958;19;20015;-68
2022/08/13 02:53:55;;;;;;;5.10;4.57;;;;;;;18.62;56.39;101259.72;7395048;19;20014;-67
2022/08/13 02:56:23;;;;;;;11.40;4.78;;;;;;;18.62;56.41;101253.56;7395777;19;20069;-67
2022/08/13 02:58:52;;;;;;;5.15;4.55;;;;;;;18.61;56.40;101252.69;7395454;19;20483;-67
2022/08/13 03:01:21;;;;;;;5.50;5.00;;;;;;;18.62;56.71;101256.22;7394143;19;20018;-68
2022/08/13 03:03:49;;;;;;;7.63;4.85;;;;;;;18.61;56.72;101258.00;7393836;19;20390;-68
2022/08/13 03:06:19;;;;;;;5.53;4.68;;;;;;;18.61;56.88;101252.69;7395990;19;20033;-68
2022/08/13 03:08:52;;;;;;;5.43;4.93;;;;;;;18.61;56.96;101249.19;7395577;19;20087;-68
2022/08/13 03:11:23;;;;;;;7.60;5.13;;;;;;;18.61;57.04;101250.03;7394376;19;20077;-68
2022/08/13 03:13:58;;;;;;;6.60;5.40;;;;;;;18.60;57.07;101244.78;7395622;19;20019;-68
2022/08/13 03:16:28;;;;;;;6.35;5.65;;;;;;;18.58;57.15;101242.22;7396016;19;20015;-67
2022/08/13 03:18:58;;;;;;;6.75;4.82;;;;;;;18.56;57.10;101249.38;7395168;19;20015;-68
2022/08/13 03:21:29;;;;;;;6.55;5.15;;;;;;;18.55;57.37;101245.00;7395180;19;20022;-68
2022/08/13 03:23:58;;;;;;;5.97;5.05;;;;;;;18.52;57.17;101245.16;7394472;19;20046;-68
2022/08/13 03:26:30;;;;;;;6.22;5.18;;;;;;;18.49;57.52;101246.16;7395136;19;20011;-68
2022/08/13 03:28:58;;;;;;;5.82;4.95;;;;;;;18.47;57.71;101248.03;7395699;19;20086;-68
2022/08/13 03:31:27;;;;;;;6.15;5.40;;;;;;;18.48;57.72;101243.59;7394243;19;20019;-67
2022/08/13 03:33:58;;;;;;;7.53;5.40;;;;;;;18.45;57.75;101246.38;7394129;19;20019;-68
2022/08/13 03:36:27;;;;;;;8.43;5.65;;;;;;;18.40;58.00;101242.16;7395097;19;20018;-68
2022/08/13 03:38:56;;;;;;;6.20;5.63;;;;;;;18.38;58.03;101236.03;7392584;19;20429;-69
2022/08/13 03:41:29;;;;;;;5.63;5.13;;;;;;;18.35;58.03;101236.19;7393783;19;20011;-68
2022/08/13 03:43:59;;;;;;;8.87;6.33;;;;;;;18.32;58.29;101238.97;7393397;19;20021;-68
2022/08/13 03:46:29;;;;;;;5.78;5.10;;;;;;;18.30;58.38;101237.31;7392820;19;20034;-68
2022/08/13 03:48:57;;;;;;;6.05;5.55;;;;;;;18.29;58.18;101236.47;7392494;19;20095;-68
2022/08/13 03:51:26;;;;;;;10.20;5.80;;;;;;;18.25;58.20;101240.22;7393069;19;20018;-67
2022/08/13 03:53:56;;;;;;;9.57;5.50;;;;;;;18.23;58.61;101237.59;7392067;19;20108;-67
2022/08/13 03:56:25;;;;;;;5.90;5.30;;;;;;;18.20;58.55;101234.25;7393903;19;20029;-68
2022/08/13 03:58:56;;;;;;;7.55;5.93;;;;;;;18.18;58.53;101239.59;7394064;19;20022;-67
2022/08/13 04:01:25;;;;;;;6.63;6.00;;;;;;;18.16;58.70;101237.94;7392518;19;20018;-68
2022/08/13 04:03:53;;;;;;;6.88;6.28;;;;;;;18.16;58.86;101240.59;7392617;19;20375;-69
2022/08/13 04:06:24;;;;;;;7.63;5.60;;;;;;;18.15;59.03;101239.75;7390974;19;20089;-69
2022/08/13 04:08:53;;;;;;;7.25;6.18;;;;;;;18.15;59.14;101237.09;7391682;19;20040;-69
2022/08/13 04:11:25;;;;;;;7.32;6.10;;;;;;;18.14;58.95;101242.50;7391394;19;20011;-69
2022/08/13 04:13:56;;;;;;;7.57;6.15;;;;;;;18.14;59.18;101237.19;7391684;19;20018;-68
2022/08/13 04:16:26;;;;;;;8.18;6.25;;;;;;;18.12;59.07;101231.94;7393422;19;20022;-67
2022/08/13 04:18:55;;;;;;;8.52;6.28;;;;;;;18.12;59.19;101225.75;7393091;19;20387;-68
2022/08/13 04:21:31;;;;;;;8.38;6.40;;;;;;;18.13;59.29;101230.16;7393169;19;20015;-68
2022/08/13 04:24:02;;;;;;;7.30;6.55;;;;;;;18.14;59.23;101227.41;7390723;19;20496;-69
2022/08/13 04:26:30;;;;;;;7.15;6.45;;;;;;;18.14;59.30;101227.41;7393819;19;20074;-68
2022/08/13 04:29:04;;;;;;;7.43;6.47;;;;;;;18.17;59.41;101229.06;7393559;19;20027;-68
2022/08/13 04:31:33;;;;;;;6.28;5.78;;;;;;;18.17;59.30;101248.53;7396422;19;20021;-69
2022/08/13 04:34:01;;;;;;;7.32;6.63;;;;;;;18.18;59.26;101239.59;7398950;19;20018;-68
2022/08/13 04:36:30;;;;;;;8.57;7.22;;;;;;;18.17;59.56;101237.91;7400518;19;20022;-68
2022/08/13 04:38:58;;;;;;;7.85;6.25;;;;;;;18.19;59.53;101243.16;7397910;19;20039;-68
2022/08/13 04:41:27;;;;;;;7.85;6.80;;;;;;;18.20;59.59;101247.53;7400563;19;20027;-69
2022/08/13 04:43:56;;;;;;;7.68;6.28;;;;;;;18.20;59.80;101240.41;7399606;19;20018;-68
2022/08/13 04:46:27;;;;;;;10.52;7.53;;;;;;;18.21;59.78;101243.91;7398844;19;20019;-69
2022/08/13 04:48:55;;;;;;;11.85;8.40;;;;;;;18.24;59.65;101235.81;7400069;19;20011;-68
2022/08/13 04:51:25;;;;;;;8.25;7.05;;;;;;;18.26;60.02;101241.94;7399363;19;20383;-69
2022/08/13 04:53:54;;;;;;;8.23;7.18;;;;;;;18.29;59.68;101235.63;7399180;19;20025;-68
2022/08/13 04:56:23;;;;;;;7.57;6.25;;;;;;;18.30;59.81;101243.50;7399742;19;20376;-69
2022/08/13 04:58:58;;;;;;;11.82;6.55;;;;;;;18.32;59.83;101240.78;7400022;19;20064;-69
2022/08/13 05:01:29;;;;;;;6.82;5.82;;;;;;;18.32;60.00;101233.66;7399628;19;20031;-69
2022/08/13 05:03:58;;;;;;;7.88;6.18;;;;;;;18.31;59.90;101241.69;7399187;19;20026;-68
2022/08/13 05:06:27;;;;;;;9.23;6.13;;;;;;;18.29;59.99;101235.63;7397291;19;20083;-68
2022/08/13 05:09:00;;;;;;;7.30;6.70;;;;;;;18.27;60.06;101237.47;7399675;19;20019;-68
2022/08/13 05:11:29;;;;;;;8.18;6.20;;;;;;;18.27;60.04;101237.47;7399677;19;20036;-69
2022/08/13 05:13:57;;;;;;;10.15;7.22;;;;;;;18.27;60.23;101242.78;7398448;19;20035;-69
2022/08/13 05:16:29;;;;;;;8.18;6.50;;;;;;;18.28;59.95;101234.75;7396910;19;20373;-68
2022/08/13 05:18:57;;;;;;;10.48;6.97;;;;;;;18.33;60.21;101234.53;7400173;19;20036;-67
2022/08/13 05:21:26;;;;;;;7.95;6.70;;;;;;;18.36;60.00;101237.03;7402172;19;20018;-68
2022/08/13 05:23:55;;;;;;;6.15;5.63;;;;;;;18.41;60.47;101229.72;7398146;19;20018;-66
2022/08/13 05:26:25;;;;;;;10.45;7.43;;;;;;;18.47;60.18;101244.53;7401342;19;20014;-68
2022/08/13 05:28:54;;;;;;;7.60;6.30;;;;;;;18.52;59.88;101239.84;7399287;19;20018;-68
2022/08/13 05:31:22;;;;;;;6.65;6.05;;;;;;;18.56;59.86;101238.75;7399977;19;20019;-69
2022/08/13 05:33:54;;;;;;;8.57;7.65;;;;;;;18.62;60.30;101232.31;7398510;19;20023;-69
2022/08/13 05:36:22;;;;;;;9.48;6.85;;;;;;;18.66;60.26;101229.41;7400172;19;20014;-68
2022/08/13 05:38:52;;;;;;;6.47;5.88;;;;;;;18.71;60.17;101222.06;7399069;19;20034;-68
2022/08/13 05:41:20;;;;;;;7.13;5.80;;;;;;;18.77;59.77;101222.75;7400007;19;20034;-68
2022/08/13 05:43:50;;;;;;;6.82;5.85;;;;;;;18.83;59.67;101227.72;7396077;19;20035;-68
2022/08/13 05:46:19;;;;;;;8.07;6.18;;;;;;;18.88;59.56;101228.41;7398615;19;20025;-66
2022/08/13 05:48:58;;;;;;;9.00;6.60;;;;;;;18.95;59.82;101223.66;7398634;19;20034;-69
2022/08/13 05:51:31;;;;;;;11.57;9.35;;;;;;;19.02;59.31;101225.09;7398245;19;20023;-69
2022/08/13 05:54:02;;;;;;;8.03;6.50;;;;;;;19.11;59.46;101227.28;7396930;19;20481;-68
2022/08/13 05:56:35;;;;;;;7.05;6.30;;;;;;;19.18;59.46;101227.81;7395859;19;20429;-68
2022/08/13 05:59:04;;;;;;;9.32;6.88;;;;;;;19.23;58.97;101219.63;7395688;19;20489;-68
2022/08/13 06:04:19;;;;;;;7.13;6.32;;;;;;;19.28;59.08;101221.09;7397755;19;20015;-68
2022/08/13 06:06:50;;;;;;;9.07;5.97;;;;;;;19.34;58.98;101222.59;7396688;19;20015;-68
2022/08/13 06:09:21;;;;;;;13.90;6.70;;;;;;;19.42;58.83;101216.88;7399083;19;20015;-68
2022/08/13 06:11:51;;;;;;;9.00;6.05;;;;;;;19.51;58.61;101217.28;7398329;19;20082;-68
2022/08/13 06:14:23;;;;;;;8.15;6.38;;;;;;;19.62;58.68;101215.84;7396984;19;20022;-68
2022/08/13 06:16:53;;;;;;;10.93;6.20;;;;;;;19.72;58.87;101209.09;7398999;19;20010;-67
2022/08/13 06:19:23;;;;;;;10.73;6.65;;;;;;;19.81;58.46;101211.25;7398927;19;20019;-68
2022/08/13 06:21:55;;;;;;;7.53;6.43;;;;;;;19.95;58.54;101215.88;7399011;19;20019;-68
2022/08/13 06:24:24;;;;;;;7.28;6.57;;;;;;;20.08;58.62;101209.88;7395466;19;20015;-68
2022/08/13 06:26:53;;;;;;;5.97;5.40;;;;;;;20.20;58.25;101214.56;7396601;19;20029;-68
2022/08/13 06:29:23;;;;;;;7.68;6.40;;;;;;;20.32;58.09;101207.66;7395792;19;20011;-66
2022/08/13 06:31:52;;;;;;;8.27;6.40;;;;;;;20.45;58.32;101215.88;7397253;19;20030;-68
2022/08/13 06:34:27;;;;;;;7.00;6.10;;;;;;;20.60;57.77;101211.47;7394560;19;20398;-68
2022/08/13 06:36:58;;;;;;;6.93;5.93;;;;;;;20.72;57.47;101210.78;7396771;19;20039;-67
2022/08/13 06:39:30;;;;;;;13.75;6.00;;;;;;;20.82;57.57;101214.66;7396063;19;20500;-67
2022/08/13 06:42:02;;;;;;;9.90;7.65;;;;;;;20.93;57.17;101219.38;7396593;19;20027;-68
2022/08/13 06:44:33;;;;;;;7.60;6.63;;;;;;;21.01;57.33;101215.41;7394714;19;20428;-67
2022/08/13 06:47:03;;;;;;;11.60;6.07;;;;;;;21.09;57.06;101221.16;7393674;19;20031;-70
2022/08/13 06:49:32;;;;;;;8.60;7.53;;;;;;;21.15;56.97;101221.66;7396402;19;20032;-68
2022/08/13 06:52:05;;;;;;;9.05;6.50;;;;;;;21.22;57.22;101219.47;7395849;19;20018;-69
2022/08/13 06:54:33;;;;;;;11.47;6.57;;;;;;;21.29;56.79;101226.19;7394098;19;20018;-69
2022/08/13 06:57:03;;;;;;;8.05;6.93;;;;;;;21.38;56.70;101218.56;7396140;19;20095;-70
2022/08/13 06:59:35;;;;;;;8.77;7.55;;;;;;;21.45;56.38;101231.44;7396290;19;20029;-70
2022/08/13 07:02:07;;;;;;;8.77;7.45;;;;;;;21.52;56.36;101229.28;7395542;19;20023;-70
2022/08/13 07:04:36;;;;;;;8.80;6.85;;;;;;;21.58;56.59;101233.41;7394238;19;20042;-69
2022/08/13 07:07:08;;;;;;;9.38;6.93;;;;;;;21.66;56.45;101244.50;7395380;19;20423;-70
2022/08/13 07:09:37;;;;;;;7.82;7.13;;;;;;;21.76;55.60;101255.47;7395908;19;20047;-70
2022/08/13 07:12:07;;;;;;;8.15;6.47;;;;;;;21.82;55.49;101256.91;7394886;19;20500;-70
2022/08/13 07:14:35;;;;;;;7.13;6.43;;;;;;;21.88;55.87;101249.38;7393714;19;20482;-70
2022/08/13 07:17:05;;;;;;;7.35;6.22;;;;;;;21.96;55.11;101246.22;7395037;19;20396;-69
2022/08/13 07:19:33;;;;;;;6.50;5.90;;;;;;;22.02;55.56;101243.19;7394992;19;20038;-69
2022/08/13 07:22:02;;;;;;;8.48;6.55;;;;;;;22.10;55.08;101230.22;7394810;19;20482;-69
2022/08/13 07:24:33;;;;;;;9.63;6.15;;;;;;;22.17;55.27;101236.03;7393427;19;20436;-68
2022/08/13 07:27:05;;;;;;;6.90;6.20;;;;;;;22.22;54.92;101233.91;7393501;19;20036;-69
2022/08/13 07:29:36;;;;;;;10.93;6.53;;;;;;;22.29;54.78;101229.03;7395376;19;20027;-69
2022/08/13 07:32:07;;;;;;;8.48;6.75;;;;;;;22.35;54.92;101233.97;7393282;19;20018;-69
2022/08/13 07:34:37;;;;;;;8.63;6.15;;;;;;;22.39;54.91;101224.00;7393584;19;20023;-70
2022/08/13 07:37:06;;;;;;;6.47;5.88;;;;;;;22.45;54.90;101226.28;7394856;19;20019;-69
2022/08/13 07:39:37;;;;;;;8.98;6.82;;;;;;;22.51;54.52;101223.22;7392161;19;20015;-69
2022/08/13 07:42:06;;;;;;;8.75;6.32;;;;;;;22.56;54.39;101220.25;7393567;19;20067;-69
2022/08/13 07:44:34;;;;;;;9.13;6.05;;;;;;;22.58;54.30;101221.84;7391867;19;20032;-69
2022/08/13 07:47:08;;;;;;;7.22;6.53;;;;;;;22.63;54.76;101223.38;7392710;19;20027;-68
2022/08/13 07:49:37;;;;;;;9.13;6.97;;;;;;;22.67;54.49;101228.44;7394615;19;20087;-69
2022/08/13 07:52:07;;;;;;;9.60;5.90;;;;;;;22.71;54.08;101226.38;7394245;19;20086;-69
2022/08/13 07:54:40;;;;;;;9.85;6.85;;;;;;;22.75;53.71;101227.94;7392661;19;20033;-69
2022/08/13 07:57:08;;;;;;;6.95;6.20;;;;;;;22.81;53.74;101227.53;7394639;19;20011;-68
2022/08/13 07:59:39;;;;;;;7.10;6.40;;;;;;;22.85;53.42;101218.31;7394371;19;20082;-69
2022/08/13 08:02:09;;;;;;;8.73;6.55;;;;;;;22.94;53.57;101220.38;7394633;19;20018;-70
2022/08/13 08:04:41;;;;;;;7.32;6.65;;;;;;;23.05;53.51;101224.16;7392925;19;20070;-69
2022/08/13 08:07:12;;;;;;;6.93;6.28;;;;;;;23.15;52.97;101224.41;7397163;19;20505;-69
2022/08/13 08:09:43;;;;;;;6.78;5.38;;;;;;;23.23;53.23;101225.63;7398832;19;20014;-69
2022/08/13 08:14:53;;;;;;;7.57;6.30;;;;;;;23.42;52.67;101225.22;7399412;19;20114;-69
2022/08/13 08:17:26;;;;;;;8.52;6.90;;;;;;;23.53;52.97;101237.91;7401164;19;20541;-69
2022/08/13 08:19:55;;;;;;;7.78;5.95;;;;;;;23.63;52.88;101234.56;7400734;19;20014;-69
2022/08/13 08:22:26;;;;;;;6.93;6.10;;;;;;;23.72;52.38;101232.13;7400017;19;20011;-69
2022/08/13 08:24:57;;;;;;;7.10;5.65;;;;;;;23.82;52.55;101234.13;7398086;19;20488;-69
2022/08/13 08:27:26;;;;;;;10.95;6.13;;;;;;;23.88;51.96;101234.56;7399136;19;20478;-69
2022/08/13 08:29:55;;;;;;;7.15;6.28;;;;;;;23.95;52.17;101239.53;7400530;19;20018;-68
2022/08/13 08:32:24;;;;;;;7.88;6.95;;;;;;;23.99;52.37;101236.53;7397552;19;20094;-68
2022/08/13 08:34:52;;;;;;;7.80;6.50;;;;;;;24.03;51.71;101234.50;7397565;19;20377;-68
2022/08/13 08:42:52;;;;;;;9.80;5.93;;;;;;;24.16;51.57;101238.03;7399659;19;20010;-70
2022/08/13 08:45:22;;;;;;;5.82;5.30;;;;;;;24.21;51.58;101235.00;7397295;19;20071;-68
2022/08/13 08:47:52;;;;;;;6.60;5.60;;;;;;;24.23;51.82;101243.78;7397730;19;20010;-69
2022/08/13 08:50:22;;;;;;;6.20;5.63;;;;;;;24.24;51.86;101230.25;7396760;19;20481;-68
2022/08/13 08:55:37;;;;;;;8.30;5.97;;;;;;;24.27;51.80;101239.06;7400008;19;20036;-70
2022/08/13 08:58:08;;;;;;;7.07;6.07;;;;;;;24.28;51.56;101246.16;7399852;19;20485;-69
2022/08/13 09:00:38;;;;;;;14.70;12.48;;;;;;;24.31;52.08;101240.56;7399331;19;20433;-69
2022/08/13 09:03:07;;;;;;;8.15;7.07;;;;;;;24.34;51.79;101234.94;7398931;19;20021;-70
2022/08/13 09:05:37;;;;;;;9.57;7.43;;;;;;;24.39;51.38;101235.47;7399758;19;20019;-69
2022/08/13 09:08:08;;;;;;;7.88;6.22;;;;;;;24.42;51.56;101237.94;7399843;19;20022;-70
2022/08/13 09:10:39;;;;;;;7.28;5.10;;;;;;;24.46;51.51;101244.78;7400357;19;20031;-69
2022/08/13 09:13:08;;;;;;;7.97;5.60;;;;;;;24.50;51.44;101240.06;7397092;19;20018;-70
2022/08/13 09:15:39;;;;;;;8.10;7.30;;;;;;;24.54;51.34;101236.19;7398940;19;20031;-69
2022/08/13 09:18:08;;;;;;;6.32;5.43;;;;;;;24.56;51.25;101235.09;7394576;19;20023;-69
2022/08/13 09:20:38;;;;;;;6.85;5.43;;;;;;;24.57;51.20;101230.63;7399125;19;20014;-70
2022/08/13 09:23:09;;;;;;;6.72;6.10;;;;;;;24.62;51.22;101243.66;7396813;19;20026;-70
2022/08/13 09:25:41;;;;;;;5.70;5.20;;;;;;;24.62;51.04;101240.97;7397042;19;20078;-69
2022/08/13 09:28:10;;;;;;;5.35;4.85;;;;;;;24.63;50.89;101240.03;7395948;19;20007;-70
2022/08/13 09:30:40;;;;;;;6.78;5.53;;;;;;;24.64;50.88;101233.69;7396096;19;20014;-69
2022/08/13 09:33:12;;;;;;;6.97;5.57;;;;;;;24.63;50.64;101237.34;7395612;19;20081;-70
2022/08/13 09:35:42;;;;;;;5.32;4.93;;;;;;;24.61;50.67;101241.97;7398991;19;20019;-69
2022/08/13 09:38:11;;;;;;;8.27;5.70;;;;;;;24.60;49.98;101237.56;7398930;19;20083;-69
2022/08/13 09:40:48;;;;;;;9.07;5.75;;;;;;;24.60;50.42;101235.75;7398337;19;20023;-70
2022/08/13 09:43:20;;;;;;;6.88;5.05;;;;;;;24.59;50.92;101236.69;7396399;19;20065;-70
2022/08/13 09:45:50;;;;;;;6.85;5.07;;;;;;;24.60;50.96;101232.22;7398473;19;20031;-70
2022/08/13 09:48:18;;;;;;;7.63;5.22;;;;;;;24.59;50.69;101228.66;7399039;19;20022;-70
2022/08/13 09:50:47;;;;;;;7.18;5.38;;;;;;;24.58;51.24;101231.47;7398887;19;20036;-70
2022/08/13 09:53:15;;;;;;;7.63;6.38;;;;;;;24.59;50.88;101219.75;7395770;19;20006;-68
2022/08/13 09:58:35;;;;;;;7.45;6.18;;;;;;;24.59;50.94;101227.81;7394889;19;20015;-68
2022/08/13 10:01:03;;;;;;;10.93;8.20;;;;;;;24.60;50.95;101226.84;7397244;19;20112;-70
2022/08/13 10:03:33;;;;;;;9.27;7.47;;;;;;;24.61;51.14;101220.53;7397518;19;20019;-70
2022/08/13 10:06:02;;;;;;;35.72;27.35;;;;;;;24.63;50.90;101211.38;7395271;19;20013;-69
2022/08/13 10:08:31;;;;;;;26.08;16.92;;;;;;;24.66;51.16;101223.75;7397201;19;20509;-70
2022/08/13 10:11:02;;;;;;;7.60;6.45;;;;;;;24.68;51.12;101219.09;7395158;19;20045;-71
2022/08/13 10:13:33;;;;;;;9.55;7.30;;;;;;;24.69;51.14;101215.47;7396572;19;20351;-70
2022/08/13 10:16:01;;;;;;;13.15;6.75;;;;;;;24.74;51.13;101218.66;7396159;19;20086;-70
2022/08/13 10:18:31;;;;;;;14.65;11.50;;;;;;;24.76;50.77;101205.13;7394911;19;20108;-68
2022/08/13 10:21:00;;;;;;;10.00;6.80;;;;;;;24.80;50.59;101204.78;7396936;19;20014;-70
2022/08/13 10:23:29;;;;;;;8.65;7.13;;;;;;;24.85;50.14;101201.75;7394933;19;20104;-70
2022/08/13 10:25:59;;;;;;;6.93;6.22;;;;;;;24.90;50.32;101196.91;7394643;19;20042;-70
2022/08/13 10:28:32;;;;;;;8.52;6.70;;;;;;;24.94;50.14;101194.84;7396262;19;20024;-69
2022/08/13 10:31:02;;;;;;;11.93;6.32;;;;;;;25.00;49.97;101197.06;7395572;19;20015;-70
2022/08/13 10:33:32;;;;;;;8.82;7.93;;;;;;;25.07;49.70;101190.25;7396020;19;20078;-70
2022/08/13 10:36:01;;;;;;;6.22;5.63;;;;;;;25.15;49.69;101186.97;7396797;19;20018;-70
2022/08/13 10:38:30;;;;;;;8.32;5.95;;;;;;;25.21;49.48;101191.88;7394405;19;20473;-71
2022/08/13 10:41:00;;;;;;;9.55;7.18;;;;;;;25.27;49.14;101198.63;7396850;19;20039;-70
2022/08/13 10:43:31;;;;;;;14.27;7.20;;;;;;;25.30;49.01;101209.09;7394757;19;20377;-69
2022/08/13 10:46:00;;;;;;;7.07;6.35;;;;;;;25.29;49.43;101207.41;7395640;19;20018;-70
2022/08/13 10:48:30;;;;;;;7.15;6.45;;;;;;;25.26;49.20;101213.00;7397752;19;20354;-71
2022/08/13 10:50:58;;;;;;;10.10;6.38;;;;;;;25.22;49.54;101223.13;7396577;19;20042;-70
2022/08/13 10:56:17;;;;;;;6.90;5.30;;;;;;;25.08;50.04;101223.31;7398247;19;20006;-70
2022/08/13 10:58:48;;;;;;;9.82;7.15;;;;;;;25.02;50.87;101225.50;7394968;19;20015;-69
2022/08/13 11:01:17;;;;;;;6.43;5.80;;;;;;;24.96;50.60;101219.72;7396694;19;20022;-70
2022/08/13 11:03:46;;;;;;;9.77;6.15;;;;;;;24.92;51.26;101213.75;7394467;19;20025;-70
2022/08/13 11:06:18;;;;;;;8.52;6.18;;;;;;;24.89;50.94;101208.59;7397171;19;20037;-70
2022/08/13 11:08:47;;;;;;;17.27;6.70;;;;;;;24.89;51.30;101206.75;7393546;19;20410;-70
2022/08/13 11:11:16;;;;;;;8.25;6.20;;;;;;;24.92;50.93;101208.38;7393566;19;20494;-70
2022/08/13 11:13:47;;;;;;;9.63;6.53;;;;;;;24.98;51.05;101204.38;7393775;19;20023;-70
2022/08/13 11:18:58;;;;;;;14.23;6.22;;;;;;;25.17;50.64;101201.13;7392465;19;20010;-69
2022/08/13 11:21:28;;;;;;;6.15;5.55;;;;;;;25.25;50.16;101200.56;7394446;19;20038;-70
2022/08/13 11:23:56;;;;;;;9.82;6.05;;;;;;;25.35;50.16;101201.53;7394257;19;20031;-69
2022/08/13 11:26:25;;;;;;;9.80;5.95;;;;;;;25.42;49.75;101199.28;7395137;19;20035;-70
2022/08/13 11:28:59;;;;;;;9.82;7.30;;;;;;;25.46;49.69;101206.97;7395446;19;20094;-69
2022/08/13 11:31:27;;;;;;;7.03;6.35;;;;;;;25.43;49.80;101193.78;7396306;19;20017;-69
2022/08/13 11:33:56;;;;;;;8.18;6.75;;;;;;;25.49;49.43;101195.13;7392669;19;20015;-70
2022/08/13 11:36:25;;;;;;;9.23;6.53;;;;;;;25.52;49.56;101194.91;7392614;19;20011;-69
2022/08/13 11:38:53;;;;;;;9.43;6.13;;;;;;;25.56;49.48;101182.09;7395535;19;20031;-70
2022/08/13 11:41:27;;;;;;;8.05;6.85;;;;;;;25.62;49.43;101181.63;7398897;19;20039;-70
2022/08/13 11:43:58;;;;;;;6.97;6.38;;;;;;;25.70;48.98;101179.16;7398892;19;20014;-69
2022/08/13 11:46:27;;;;;;;6.93;6.15;;;;;;;25.77;48.76;101175.03;7397885;19;20006;-69
2022/08/13 11:48:56;;;;;;;7.35;6.25;;;;;;;25.85;48.67;101164.50;7401923;19;20541;-69
2022/08/13 11:51:24;;;;;;;7.43;6.60;;;;;;;25.92;48.44;101159.50;7401800;19;20018;-69
2022/08/13 11:53:53;;;;;;;6.80;6.18;;;;;;;25.95;48.63;101153.03;7400276;19;20485;-70
2022/08/13 11:56:22;;;;;;;13.98;5.90;;;;;;;25.98;48.75;101150.94;7401959;19;20032;-69
2022/08/13 11:58:51;;;;;;;6.32;5.70;;;;;;;26.01;48.75;101152.53;7401071;19;20081;-70
2022/08/13 12:01:22;;;;;;;7.60;5.88;;;;;;;26.02;48.75;101149.72;7401588;19;20034;-69
2022/08/13 12:03:51;;;;;;;6.97;6.15;;;;;;;26.00;48.43;101148.13;7401057;19;20025;-69
2022/08/13 12:06:19;;;;;;;8.50;6.88;;;;;;;25.98;48.76;101142.00;7401551;19;20090;-69
2022/08/13 12:08:54;;;;;;;9.63;6.35;;;;;;;25.95;48.38;101144.97;7401303;19;20015;-70
2022/08/13 12:11:23;;;;;;;9.65;6.57;;;;;;;25.93;48.47;101141.53;7401159;19;20014;-70